Time;durP1;ratioP1;P1;durP2;ratioP2;P2;SDS_P1;SDS_P2;PMS_P1;PMS_P2;Temp;Humidity;BMP_temperature;BMP_pressure;BME280_temperature;BME280_humidity;BME280_pressure;Samples;Min_cycle;Max_cycle;Signal;HPM_P1;HPM_P2
2023/10/17 00:01:18;;;;;;;5.85;3.30;;;;;;;8.16;42.15;95428.06;5013509;28;20128;-75
2023/10/17 00:03:45;;;;;;;4.65;3.13;;;;;;;8.11;42.68;95423.81;5028645;28;20033;-75
2023/10/17 00:06:13;;;;;;;6.05;3.30;;;;;;;8.04;42.60;95421.16;5029250;28;20037;-75
2023/10/17 00:08:39;;;;;;;7.25;3.35;;;;;;;8.04;42.54;95412.94;5029529;28;20044;-76
2023/10/17 00:11:17;;;;;;;8.93;3.67;;;;;;;8.03;42.41;95400.44;5028870;28;20515;-75
2023/10/17 00:13:45;;;;;;;5.85;3.45;;;;;;;7.98;42.70;95401.66;5031541;28;20029;-75
2023/10/17 00:16:17;;;;;;;7.72;3.60;;;;;;;7.96;42.89;95414.97;5028442;28;20041;-76
2023/10/17 00:18:42;;;;;;;9.30;4.03;;;;;;;7.96;42.83;95420.44;5013261;28;20193;-75
2023/10/17 00:21:17;;;;;;;6.97;3.72;;;;;;;7.92;43.11;95403.28;5046646;28;20120;-75
2023/10/17 00:23:42;;;;;;;6.10;3.20;;;;;;;7.92;43.07;95408.00;5003098;28;20116;-75
2023/10/17 00:26:08;;;;;;;6.00;3.25;;;;;;;7.91;42.91;95409.97;5021190;28;20178;-76
2023/10/17 00:28:38;;;;;;;7.32;3.83;;;;;;;7.89;42.64;95400.59;5027798;28;20032;-76
2023/10/17 00:31:04;;;;;;;7.07;4.00;;;;;;;7.89;42.56;95398.63;5013122;28;20042;-76
2023/10/17 00:33:32;;;;;;;6.88;3.20;;;;;;;7.83;42.41;95396.75;5003820;28;20040;-76
2023/10/17 00:35:58;;;;;;;4.88;3.03;;;;;;;7.87;42.63;95389.28;5013102;28;20032;-76
2023/10/17 00:38:29;;;;;;;9.35;3.85;;;;;;;7.81;43.16;95394.41;5027286;28;20032;-76
2023/10/17 00:40:56;;;;;;;10.93;3.67;;;;;;;7.80;43.01;95389.34;5012919;28;20032;-76
2023/10/17 00:43:23;;;;;;;9.23;4.32;;;;;;;7.77;43.10;95393.66;5028586;28;20029;-76
2023/10/17 00:45:49;;;;;;;7.03;3.13;;;;;;;7.73;43.14;95379.25;5006938;28;20029;-76
2023/10/17 00:48:27;;;;;;;5.88;3.55;;;;;;;7.70;43.54;95382.81;5029328;28;20113;-76
2023/10/17 00:50:58;;;;;;;6.57;3.63;;;;;;;7.73;43.49;95380.00;5028997;28;20043;-76
2023/10/17 00:53:24;;;;;;;6.18;3.55;;;;;;;7.69;43.30;95382.03;5028734;28;20057;-76
2023/10/17 00:55:56;;;;;;;6.72;3.97;;;;;;;7.68;43.17;95382.41;5045985;28;20155;-76
2023/10/17 00:58:23;;;;;;;6.13;3.75;;;;;;;7.68;43.49;95393.38;5029115;28;20033;-75
2023/10/17 01:00:54;;;;;;;4.75;3.33;;;;;;;7.65;43.48;95386.75;5028716;28;20029;-76
2023/10/17 01:03:21;;;;;;;5.70;3.50;;;;;;;7.51;43.43;95369.69;5028090;28;20028;-76
2023/10/17 01:05:57;;;;;;;6.80;4.22;;;;;;;7.62;43.23;95393.03;4999814;28;20041;-76
2023/10/17 01:09:17;;;;;;;5.95;4.10;;;;;;;7.52;43.17;95391.19;5012811;28;20068;-76
2023/10/17 01:11:20;;;;;;;7.85;4.57;;;;;;;7.56;43.10;95394.66;5034790;28;20414;-76
2023/10/17 01:13:52;;;;;;;9.75;4.45;;;;;;;7.48;43.05;95390.44;5012646;28;20559;-76
2023/10/17 01:16:22;;;;;;;6.22;3.75;;;;;;;7.51;43.22;95397.06;5027493;28;20033;-76
2023/10/17 01:18:47;;;;;;;7.35;3.90;;;;;;;7.52;43.10;95399.41;5011585;28;20424;-75
2023/10/17 01:21:18;;;;;;;5.40;3.50;;;;;;;7.44;43.26;95395.94;5010341;28;20101;-75
2023/10/17 01:23:45;;;;;;;5.45;3.47;;;;;;;7.47;43.12;95388.91;5027861;28;20033;-75
2023/10/17 01:26:14;;;;;;;6.93;3.65;;;;;;;7.49;43.09;95391.22;5007997;28;20048;-75
2023/10/17 01:28:41;;;;;;;8.63;4.18;;;;;;;7.45;43.40;95375.63;5015534;28;20028;-77
2023/10/17 01:31:07;;;;;;;7.15;4.15;;;;;;;7.46;43.33;95379.16;5028487;28;20029;-76
2023/10/17 01:33:33;;;;;;;6.43;3.63;;;;;;;7.38;43.47;95383.88;5026756;28;20430;-75
2023/10/17 01:35:58;;;;;;;6.93;4.05;;;;;;;7.40;43.47;95375.31;5028243;28;20415;-75
2023/10/17 01:38:28;;;;;;;7.28;3.85;;;;;;;7.37;43.50;95382.34;5026953;28;20021;-75
2023/10/17 01:40:58;;;;;;;7.82;4.30;;;;;;;7.38;43.41;95380.38;5028525;28;20054;-75
2023/10/17 01:43:24;;;;;;;7.03;3.83;;;;;;;7.37;43.37;95381.56;5026936;28;20033;-74
2023/10/17 01:45:50;;;;;;;8.10;4.00;;;;;;;7.37;43.64;95387.03;5045199;28;20036;-74
2023/10/17 01:48:16;;;;;;;7.05;3.50;;;;;;;7.35;43.84;95395.66;5027770;28;20024;-74
2023/10/17 01:50:41;;;;;;;7.45;4.15;;;;;;;7.34;43.40;95385.09;5026471;28;20607;-75
2023/10/17 01:53:13;;;;;;;8.82;4.15;;;;;;;7.33;43.53;95384.31;5027579;28;20025;-76
2023/10/17 01:55:45;;;;;;;7.78;4.10;;;;;;;7.31;43.60;95396.88;5044456;28;20033;-76
2023/10/17 01:58:16;;;;;;;8.33;4.90;;;;;;;7.33;43.46;95397.22;5028449;28;20036;-76
2023/10/17 02:00:42;;;;;;;6.85;3.80;;;;;;;7.33;43.52;95389.78;5044828;28;20114;-75
2023/10/17 02:03:12;;;;;;;6.25;3.53;;;;;;;7.33;43.70;95397.22;5027366;28;20124;-75
2023/10/17 02:05:37;;;;;;;6.22;3.70;;;;;;;7.33;43.62;95383.56;5045129;28;20024;-75
2023/10/17 02:08:03;;;;;;;5.85;3.85;;;;;;;7.28;43.74;95381.25;5026436;28;20041;-76
2023/10/17 02:10:29;;;;;;;7.30;3.45;;;;;;;7.29;43.63;95375.41;5045867;28;20534;-74
2023/10/17 02:12:55;;;;;;;5.78;3.33;;;;;;;7.30;43.77;95376.94;4994909;28;20026;-76
2023/10/17 02:15:22;;;;;;;6.10;3.80;;;;;;;7.36;43.89;95372.59;4992109;28;20040;-75
2023/10/17 02:17:50;;;;;;;5.55;3.53;;;;;;;7.35;43.61;95381.97;5027841;28;20386;-76
2023/10/17 02:22:58;;;;;;;6.15;3.22;;;;;;;7.30;44.02;95381.63;5033249;28;20055;-76
2023/10/17 02:25:28;;;;;;;6.20;3.40;;;;;;;7.27;43.83;95374.22;5030300;28;20029;-77
2023/10/17 02:27:53;;;;;;;5.63;3.25;;;;;;;7.27;43.84;95366.81;5012320;28;20060;-76
2023/10/17 02:30:20;;;;;;;6.05;3.53;;;;;;;7.31;43.76;95372.25;5022826;28;20115;-75
2023/10/17 02:32:52;;;;;;;5.80;3.60;;;;;;;7.30;43.78;95378.91;5030592;28;20021;-77
2023/10/17 02:35:20;;;;;;;6.40;3.28;;;;;;;7.24;43.93;95369.59;5031217;28;20035;-77
2023/10/17 02:37:47;;;;;;;4.78;3.28;;;;;;;7.18;44.12;95375.50;5011581;28;20120;-76
2023/10/17 02:40:20;;;;;;;5.32;3.65;;;;;;;7.24;44.08;95373.09;5031753;28;20078;-76
2023/10/17 02:42:47;;;;;;;6.80;3.77;;;;;;;7.23;44.22;95373.50;5004609;28;20025;-76
2023/10/17 02:45:13;;;;;;;5.63;3.35;;;;;;;7.10;44.50;95368.50;5029267;28;20021;-76
2023/10/17 02:47:43;;;;;;;5.90;3.28;;;;;;;7.11;44.78;95370.09;5030250;28;20029;-75
2023/10/17 02:53:14;;;;;;;5.88;3.22;;;;;;;7.10;44.82;95379.44;4974284;28;20162;-75
2023/10/17 02:55:39;;;;;;;6.55;4.07;;;;;;;7.09;44.84;95371.66;4969970;28;20038;-75
2023/10/17 02:58:04;;;;;;;8.32;3.45;;;;;;;7.09;45.04;95375.16;4970798;28;20034;-75
2023/10/17 03:00:36;;;;;;;6.43;3.20;;;;;;;7.10;45.00;95378.66;4986048;28;20072;-76
2023/10/17 03:03:12;;;;;;;8.70;3.50;;;;;;;7.09;45.08;95386.09;4986533;28;20038;-75
2023/10/17 03:05:44;;;;;;;5.65;3.53;;;;;;;7.04;45.43;95383.03;4986391;28;20038;-75
2023/10/17 03:08:15;;;;;;;6.50;3.63;;;;;;;7.02;45.48;95380.69;4950267;28;20038;-75
2023/10/17 03:10:41;;;;;;;7.90;3.60;;;;;;;7.07;45.38;95390.44;4969913;28;20583;-75
2023/10/17 03:15:48;;;;;;;6.90;4.55;;;;;;;7.08;45.56;95373.63;4967111;28;20080;-75
2023/10/17 03:18:16;;;;;;;8.18;4.15;;;;;;;7.10;45.87;95373.19;4969620;28;20049;-75
2023/10/17 03:20:50;;;;;;;6.63;3.92;;;;;;;7.09;45.73;95363.44;4966915;28;20105;-75
2023/10/17 03:23:16;;;;;;;7.03;3.83;;;;;;;7.02;45.79;95356.09;4970435;28;20038;-75
2023/10/17 03:25:46;;;;;;;7.07;4.25;;;;;;;7.16;45.64;95375.09;4970681;28;20049;-75
2023/10/17 03:28:15;;;;;;;8.15;4.10;;;;;;;7.17;45.78;95373.16;4998817;28;20080;-75
2023/10/17 03:30:47;;;;;;;7.10;3.90;;;;;;;7.21;45.70;95370.38;5029618;28;20035;-76
2023/10/17 03:33:26;;;;;;;6.55;4.88;;;;;;;7.27;45.69;95364.06;5047959;28;20074;-77
2023/10/17 03:36:40;;;;;;;6.05;4.03;;;;;;;7.28;45.79;95375.78;5031257;28;20673;-76
2023/10/17 03:38:37;;;;;;;6.65;3.85;;;;;;;7.28;45.82;95376.56;5015107;28;20424;-75
2023/10/17 03:41:37;;;;;;;6.13;4.13;;;;;;;7.33;45.74;95370.66;5030079;28;20035;-76
2023/10/17 03:43:54;;;;;;;5.60;3.20;;;;;;;7.28;46.16;95373.81;5029440;28;20598;-76
2023/10/17 03:46:25;;;;;;;4.28;3.08;;;;;;;7.27;46.00;95368.75;5029629;28;20104;-77
2023/10/17 03:48:57;;;;;;;6.97;3.67;;;;;;;7.29;46.22;95363.69;5013660;28;20021;-77
2023/10/17 03:51:24;;;;;;;6.03;3.88;;;;;;;7.28;46.44;95376.56;5029118;28;20512;-77
2023/10/17 03:53:50;;;;;;;7.00;4.30;;;;;;;7.26;46.49;95367.22;5047538;28;20040;-75
2023/10/17 03:56:23;;;;;;;8.63;5.88;;;;;;;7.29;46.66;95369.16;5028355;28;20035;-77
2023/10/17 03:58:52;;;;;;;8.38;5.30;;;;;;;7.31;46.83;95369.50;5029972;28;20098;-75
2023/10/17 04:01:18;;;;;;;6.28;5.03;;;;;;;7.33;46.98;95369.88;5012650;28;20029;-75
2023/10/17 04:03:45;;;;;;;8.43;4.28;;;;;;;7.35;47.20;95376.50;5046987;28;20029;-76
2023/10/17 04:09:15;;;;;;;9.43;4.30;;;;;;;7.37;47.55;95373.38;5028999;28;20115;-76
2023/10/17 04:13:54;;;;;;;10.30;5.75;;;;;;;7.40;47.42;95376.06;5028474;28;20055;-77
2023/10/17 04:16:39;;;;;;;11.30;5.43;;;;;;;7.41;47.27;95363.94;5029735;28;20064;-77
2023/10/17 04:19:07;;;;;;;9.57;5.15;;;;;;;7.48;47.35;95379.50;5014177;28;20152;-77
2023/10/17 04:21:38;;;;;;;14.15;6.15;;;;;;;7.45;47.21;95363.91;5029130;28;20755;-77
2023/10/17 04:24:06;;;;;;;12.23;5.72;;;;;;;7.50;47.01;95360.72;5027241;28;20116;-76
2023/10/17 04:26:35;;;;;;;12.77;5.90;;;;;;;7.51;47.12;95361.50;5028392;28;20070;-76
2023/10/17 04:29:12;;;;;;;11.45;5.32;;;;;;;7.55;47.03;95367.72;5029971;28;20037;-77
2023/10/17 04:31:47;;;;;;;7.47;4.85;;;;;;;7.60;47.08;95368.03;5029767;28;20053;-76
2023/10/17 04:34:21;;;;;;;8.10;4.43;;;;;;;7.61;47.27;95364.13;5028257;28;20229;-77
2023/10/17 04:36:51;;;;;;;11.40;4.70;;;;;;;7.62;47.50;95357.47;5013630;28;20108;-76
2023/10/17 04:44:33;;;;;;;11.63;5.05;;;;;;;7.74;47.25;95358.91;5030663;28;20037;-76
2023/10/17 04:49:30;;;;;;;8.63;4.47;;;;;;;7.71;47.45;95360.50;5028522;28;20043;-75
2023/10/17 04:54:43;;;;;;;7.88;4.80;;;;;;;7.78;47.83;95367.84;5019067;28;20047;-75
2023/10/17 04:57:09;;;;;;;8.18;4.60;;;;;;;7.86;47.75;95360.34;5026753;28;20021;-75
2023/10/17 06:18:31;;;;;;;11.70;6.07;;;;;;;9.43;47.62;95393.78;5030051;28;20040;-77
2023/10/17 06:26:06;;;;;;;14.50;6.63;;;;;;;9.82;47.18;95399.34;5028378;28;20028;-76
2023/10/17 06:28:35;;;;;;;17.13;7.68;;;;;;;9.94;47.45;95408.16;5026576;28;20087;-83
2023/10/17 06:34:00;;;;;;;15.85;7.90;;;;;;;10.15;47.11;95402.25;5017258;28;20094;-78
2023/10/17 06:36:28;;;;;;;11.05;5.15;;;;;;;10.27;47.62;95409.13;5010590;28;20485;-76
2023/10/17 06:38:54;;;;;;;9.23;4.57;;;;;;;10.34;47.86;95404.25;5027428;28;20498;-75
2023/10/17 06:41:44;;;;;;;11.52;4.75;;;;;;;10.48;47.96;95397.66;5027183;28;20045;-87
2023/10/17 06:44:33;;;;;;;11.35;5.10;;;;;;;10.58;48.08;95413.16;5030281;28;20041;-89
2023/10/17 06:47:07;;;;;;;7.35;4.70;;;;;;;10.75;47.83;95411.25;5023995;28;20033;-85
2023/10/17 06:54:41;;;;;;;6.07;4.20;;;;;;;10.92;47.55;95405.78;5039916;28;20111;-77
2023/10/17 06:57:19;;;;;;;7.07;3.42;;;;;;;11.07;47.35;95398.75;5027253;28;20024;-77
2023/10/17 06:59:52;;;;;;;8.43;3.42;;;;;;;11.13;47.05;95405.28;5028980;28;20037;-77
2023/10/17 07:02:27;;;;;;;9.43;3.70;;;;;;;11.15;47.01;95400.91;5026322;28;20120;-76
2023/10/17 07:04:55;;;;;;;10.60;4.18;;;;;;;11.22;48.37;95383.44;5031728;28;20037;-78
2023/10/17 07:07:23;;;;;;;5.25;3.67;;;;;;;11.28;48.65;95392.72;5013217;28;20056;-79
2023/10/17 07:09:52;;;;;;;9.25;3.17;;;;;;;11.35;47.58;95389.78;5030697;28;20483;-75
2023/10/17 07:12:20;;;;;;;4.68;3.50;;;;;;;11.40;46.83;95386.50;5014277;28;20542;-76
2023/10/17 07:14:49;;;;;;;3.38;2.17;;;;;;;11.34;46.46;95382.75;5029840;28;20044;-75
2023/10/17 07:17:34;;;;;;;7.60;3.95;;;;;;;11.37;46.38;95383.88;5015065;28;20114;-77
2023/10/17 07:20:01;;;;;;;5.03;2.35;;;;;;;11.33;46.26;95378.44;5032410;28;20415;-75
2023/10/17 07:22:35;;;;;;;3.78;2.45;;;;;;;11.27;46.24;95371.13;5048643;28;20025;-75
2023/10/17 07:25:02;;;;;;;3.47;2.30;;;;;;;11.36;46.29;95379.56;5022774;28;20178;-75
2023/10/17 07:27:33;;;;;;;4.22;1.95;;;;;;;11.38;46.26;95375.19;5030206;28;20029;-76
2023/10/17 07:29:59;;;;;;;4.25;2.35;;;;;;;11.28;46.40;95376.19;5048091;28;20037;-75
2023/10/17 07:32:49;;;;;;;4.38;2.22;;;;;;;11.31;46.41;95369.84;5028816;28;20422;-74
2023/10/17 07:35:23;;;;;;;8.73;3.15;;;;;;;11.38;46.15;95374.41;5033370;28;20040;-74
2023/10/17 07:37:53;;;;;;;5.00;2.80;;;;;;;11.40;46.38;95371.97;5030622;28;20037;-74
2023/10/17 07:40:22;;;;;;;6.20;2.83;;;;;;;11.41;46.17;95374.31;5030404;28;20491;-77
2023/10/17 07:42:48;;;;;;;4.05;2.38;;;;;;;11.51;46.17;95375.25;5014287;28;20061;-77
2023/10/17 07:45:14;;;;;;;3.63;2.10;;;;;;;11.59;45.77;95373.09;5028954;28;20068;-78
2023/10/17 07:48:01;;;;;;;3.75;2.13;;;;;;;11.64;45.65;95365.09;4998648;28;20119;-76
2023/10/17 07:50:26;;;;;;;5.18;2.10;;;;;;;11.70;45.56;95365.34;5007002;28;20056;-76
2023/10/17 07:52:54;;;;;;;4.28;2.40;;;;;;;11.63;45.53;95366.28;5026935;28;20067;-76
2023/10/17 07:55:34;;;;;;;4.47;2.55;;;;;;;11.71;45.57;95366.88;5029425;28;20047;-77
2023/10/17 07:58:06;;;;;;;5.32;2.13;;;;;;;11.84;45.39;95366.94;5014744;28;20111;-76
2023/10/17 08:00:35;;;;;;;5.05;2.08;;;;;;;11.92;45.17;95374.56;5030881;28;20039;-77
2023/10/17 08:03:14;;;;;;;7.15;2.63;;;;;;;12.01;44.94;95362.94;5029112;28;20545;-77
2023/10/17 08:05:54;;;;;;;3.60;1.90;;;;;;;12.10;44.61;95362.28;5013972;28;20555;-76
2023/10/17 08:08:20;;;;;;;4.95;2.20;;;;;;;12.17;44.36;95362.88;5030354;28;20098;-76
2023/10/17 08:10:46;;;;;;;5.03;1.90;;;;;;;12.06;43.80;95365.16;5029233;28;20416;-76
2023/10/17 08:13:15;;;;;;;4.22;2.10;;;;;;;12.11;43.48;95367.38;5028794;28;20032;-77
2023/10/17 08:18:14;;;;;;;3.25;2.05;;;;;;;12.05;43.26;95354.59;5048091;28;20174;-76
2023/10/17 08:23:26;;;;;;;3.60;1.75;;;;;;;11.91;43.59;95361.25;5032279;28;20430;-77
2023/10/17 08:25:59;;;;;;;2.80;1.85;;;;;;;11.84;43.82;95356.72;5029229;28;20039;-81
2023/10/17 08:28:31;;;;;;;5.07;1.98;;;;;;;11.89;43.82;95366.44;5029537;28;20102;-76
2023/10/17 08:31:50;;;;;;;5.78;1.83;;;;;;;11.91;43.87;95364.78;5029276;28;20021;-78
2023/10/17 08:36:41;;;;;;;5.38;2.65;;;;;;;11.90;43.90;95343.94;5029736;28;20091;-77
2023/10/17 08:42:05;;;;;;;3.53;2.13;;;;;;;12.17;43.57;95362.13;5029630;28;20032;-75
2023/10/17 08:44:33;;;;;;;6.30;2.22;;;;;;;12.28;42.96;95346.06;5030060;28;20489;-77
2023/10/17 08:46:59;;;;;;;4.45;2.67;;;;;;;12.27;43.23;95354.72;5028471;28;20116;-75
2023/10/17 08:49:27;;;;;;;8.65;2.33;;;;;;;12.28;42.89;95359.84;5028557;28;20466;-77
2023/10/17 08:51:56;;;;;;;7.43;2.08;;;;;;;12.23;43.03;95360.38;5046723;28;20029;-77
2023/10/17 08:54:28;;;;;;;3.63;1.85;;;;;;;12.16;43.21;95363.34;5028475;28;20032;-79
2023/10/17 08:56:53;;;;;;;4.55;2.30;;;;;;;12.01;43.55;95364.94;5030180;28;20032;-77
2023/10/17 08:59:51;;;;;;;5.47;2.17;;;;;;;12.02;43.49;95358.97;5026834;28;20363;-77
2023/10/17 09:02:15;;;;;;;4.63;1.98;;;;;;;12.07;43.48;95360.44;5026307;28;20388;-77
2023/10/17 09:04:44;;;;;;;4.50;1.58;;;;;;;12.17;42.81;95362.13;5028093;28;20033;-77
2023/10/17 09:07:18;;;;;;;3.33;1.70;;;;;;;12.16;42.77;95350.31;4997629;28;20422;-77
2023/10/17 09:09:47;;;;;;;5.78;2.15;;;;;;;12.11;43.07;95347.34;5024032;28;20029;-77
2023/10/17 09:12:19;;;;;;;4.22;1.90;;;;;;;12.12;42.96;95338.63;5026862;28;20032;-77
2023/10/17 09:14:49;;;;;;;3.17;1.83;;;;;;;12.22;42.20;95334.78;5029949;28;20025;-77
2023/10/17 09:19:52;;;;;;;3.53;1.70;;;;;;;12.39;41.97;95318.94;5029650;28;20025;-77
2023/10/17 09:22:36;;;;;;;4.95;1.90;;;;;;;12.50;41.96;95324.13;5046091;28;20507;-76
2023/10/17 09:25:15;;;;;;;7.88;2.05;;;;;;;12.47;42.14;95316.72;5027923;28;20110;-79
2023/10/17 09:27:41;;;;;;;4.53;1.85;;;;;;;12.56;41.93;95318.81;5028604;28;20043;-78
2023/10/17 09:30:11;;;;;;;5.03;3.25;;;;;;;12.59;41.92;95317.97;5026776;28;20033;-79
2023/10/17 09:32:37;;;;;;;3.63;2.17;;;;;;;12.72;41.99;95311.22;5046233;28;20320;-79
2023/10/17 09:35:11;;;;;;;3.78;1.60;;;;;;;12.77;41.18;95310.66;5045737;28;20547;-78
2023/10/17 09:37:46;;;;;;;;;;;;;;;12.80;41.24;95305.50;5046153;28;20530;-79
2023/10/17 09:40:14;;;;;;;3.97;2.10;;;;;;;12.81;41.53;95310.56;5028232;28;19912;-79
2023/10/17 09:42:44;;;;;;;2.85;1.65;;;;;;;12.86;41.55;95290.69;5044887;28;20037;-77
2023/10/17 09:45:10;;;;;;;3.17;1.80;;;;;;;13.02;40.72;95309.91;5012522;28;20021;-79
2023/10/17 09:47:44;;;;;;;3.70;1.95;;;;;;;12.96;40.71;95302.59;5027183;28;20625;-77
2023/10/17 09:50:16;;;;;;;5.13;2.58;;;;;;;12.82;40.89;95298.31;5026901;28;20036;-77
2023/10/17 09:52:45;;;;;;;4.80;2.22;;;;;;;12.86;41.09;95295.44;5027813;28;20033;-77
2023/10/17 09:55:14;;;;;;;3.63;1.95;;;;;;;12.77;40.78;95279.56;5027238;28;20041;-77
2023/10/17 09:57:43;;;;;;;5.10;1.90;;;;;;;12.85;40.73;95285.63;5028820;28;20707;-77
2023/10/17 10:00:16;;;;;;;2.97;1.77;;;;;;;12.76;41.29;95291.81;5044764;28;20078;-76
2023/10/17 10:02:44;;;;;;;6.25;2.33;;;;;;;12.73;41.22;95293.47;5028322;28;20033;-76
2023/10/17 10:05:28;;;;;;;3.63;2.03;;;;;;;12.74;41.33;95294.25;5026871;28;20029;-77
2023/10/17 10:07:54;;;;;;;3.70;1.98;;;;;;;12.71;41.54;95275.81;4992063;28;20041;-77
2023/10/17 10:10:41;;;;;;;4.88;2.00;;;;;;;12.73;41.34;95285.19;5008620;28;20017;-76
2023/10/17 10:13:08;;;;;;;4.82;2.25;;;;;;;12.80;41.35;95275.91;5013010;28;20025;-77
2023/10/17 10:16:03;;;;;;;3.72;2.45;;;;;;;12.86;41.18;95276.91;5029193;28;20430;-75
2023/10/17 10:18:35;;;;;;;4.85;2.83;;;;;;;12.94;41.27;95272.69;5027831;28;20056;-83
2023/10/17 10:21:04;;;;;;;4.65;2.30;;;;;;;12.97;40.96;95277.34;5027356;28;20557;-78
2023/10/17 10:23:40;;;;;;;9.00;2.10;;;;;;;13.00;41.11;95272.91;5027700;28;20032;-80
2023/10/17 10:26:10;;;;;;;5.25;2.15;;;;;;;13.07;40.81;95269.13;5023379;28;20025;-77
2023/10/17 10:28:40;;;;;;;4.05;2.20;;;;;;;13.10;40.75;95274.53;5026007;28;20101;-77
2023/10/17 10:31:24;;;;;;;2.38;1.65;;;;;;;13.18;40.54;95267.56;5025329;28;20036;-80
2023/10/17 10:33:56;;;;;;;4.25;2.00;;;;;;;13.20;40.68;95265.13;5026860;28;20156;-77
2023/10/17 10:36:26;;;;;;;5.10;2.53;;;;;;;13.25;40.61;95272.13;5027274;28;20029;-82
2023/10/17 10:38:55;;;;;;;5.22;2.67;;;;;;;13.37;40.49;95274.06;5012888;28;20020;-79
2023/10/17 10:41:25;;;;;;;4.43;2.15;;;;;;;13.45;40.30;95269.81;5015483;28;20059;-80
2023/10/17 10:44:01;;;;;;;6.00;3.03;;;;;;;13.53;40.13;95267.59;5014757;28;20417;-79
2023/10/17 10:46:28;;;;;;;6.38;2.25;;;;;;;13.61;40.03;95268.13;5031625;28;20036;-80
2023/10/17 10:48:53;;;;;;;4.95;2.55;;;;;;;13.71;39.93;95269.75;5013590;28;20048;-80
2023/10/17 10:51:24;;;;;;;3.63;2.10;;;;;;;13.81;39.50;95260.28;5048693;28;20510;-80
2023/10/17 10:53:56;;;;;;;2.58;1.75;;;;;;;13.86;38.95;95259.69;5031111;28;20032;-81
2023/10/17 10:56:22;;;;;;;3.13;1.75;;;;;;;13.66;39.28;95259.25;5031241;28;20017;-78
2023/10/17 10:58:53;;;;;;;3.97;1.70;;;;;;;13.62;39.36;95259.38;5030512;28;20349;-80
2023/10/17 11:01:20;;;;;;;4.82;1.88;;;;;;;13.58;39.51;95252.44;5047934;28;20025;-80
2023/10/17 11:03:46;;;;;;;7.00;1.92;;;;;;;13.60;39.54;95247.25;5029880;28;20032;-80
2023/10/17 11:06:13;;;;;;;5.00;2.33;;;;;;;13.69;39.14;95239.00;5029890;28;20036;-81
2023/10/17 11:08:43;;;;;;;4.35;2.38;;;;;;;13.80;38.99;95233.88;5030018;28;20458;-79
2023/10/17 11:11:14;;;;;;;6.03;1.88;;;;;;;13.92;38.68;95235.00;5014964;28;20044;-80
2023/10/17 11:14:06;;;;;;;5.85;2.08;;;;;;;13.92;38.55;95232.25;5029923;28;20444;-80
2023/10/17 11:16:32;;;;;;;2.95;1.80;;;;;;;13.95;38.47;95231.38;5026234;28;20071;-79
2023/10/17 11:18:59;;;;;;;4.30;2.30;;;;;;;13.99;38.45;95223.69;5024323;28;20119;-78
2023/10/17 11:21:24;;;;;;;5.10;2.28;;;;;;;14.03;38.52;95218.81;5022706;28;20127;-82
2023/10/17 11:23:55;;;;;;;4.22;2.05;;;;;;;14.11;38.23;95216.53;5019952;28;20085;-81
2023/10/17 11:26:23;;;;;;;4.95;1.83;;;;;;;14.19;38.11;95210.28;5030079;28;20035;-81
2023/10/17 11:28:51;;;;;;;7.43;1.92;;;;;;;14.23;38.10;95199.09;5031325;28;20048;-81
2023/10/17 11:31:24;;;;;;;8.05;2.13;;;;;;;14.25;37.85;95196.66;5030339;28;20028;-81
2023/10/17 11:34:03;;;;;;;3.63;1.63;;;;;;;14.27;38.00;95199.72;5030852;28;20025;-81
2023/10/17 11:36:37;;;;;;;3.95;1.70;;;;;;;14.28;37.79;95193.75;5014211;28;20041;-81
2023/10/17 11:39:06;;;;;;;3.95;1.52;;;;;;;14.17;37.82;95190.63;4994912;28;20191;-81
2023/10/17 11:41:39;;;;;;;2.92;1.80;;;;;;;13.81;38.45;95178.16;5026736;28;20044;-81
2023/10/17 11:44:06;;;;;;;4.50;2.08;;;;;;;13.75;38.66;95187.47;5030542;28;20036;-79
2023/10/17 11:46:38;;;;;;;3.05;2.00;;;;;;;13.75;39.08;95187.47;5030465;28;20090;-81
2023/10/17 11:49:31;;;;;;;3.42;1.83;;;;;;;13.74;38.94;95170.13;5013626;28;20068;-80
2023/10/17 11:51:56;;;;;;;5.20;2.50;;;;;;;13.70;39.01;95166.72;5030630;28;20584;-81
2023/10/17 11:54:22;;;;;;;3.53;2.03;;;;;;;13.73;38.73;95165.06;5030906;28;20388;-79
2023/10/17 11:56:48;;;;;;;2.92;2.08;;;;;;;13.77;38.90;95168.47;5028537;28;20542;-79
2023/10/17 11:59:18;;;;;;;4.22;1.95;;;;;;;13.60;39.11;95170.69;5030526;28;20105;-80
2023/10/17 12:01:45;;;;;;;3.72;2.00;;;;;;;13.47;39.56;95167.97;5029787;28;20035;-79
2023/10/17 12:04:14;;;;;;;4.00;2.10;;;;;;;13.40;39.59;95168.22;5046763;28;20021;-80
2023/10/17 12:06:41;;;;;;;3.88;1.88;;;;;;;13.37;39.86;95165.59;5013127;28;20033;-82
2023/10/17 12:09:22;;;;;;;7.75;2.15;;;;;;;13.41;39.85;95169.00;5029306;28;20029;-81
2023/10/17 12:11:50;;;;;;;6.85;2.20;;;;;;;13.43;39.78;95167.34;5048096;28;20112;-81
2023/10/17 12:14:21;;;;;;;3.35;2.10;;;;;;;13.35;39.96;95159.75;5028842;28;20526;-81
2023/10/17 12:16:53;;;;;;;13.55;2.85;;;;;;;13.36;40.02;95169.56;5029920;28;20059;-81
2023/10/17 12:19:26;;;;;;;11.27;2.70;;;;;;;13.39;40.35;95160.41;5028622;28;20036;-80
2023/10/17 12:21:53;;;;;;;6.32;2.85;;;;;;;13.58;39.92;95155.75;5046658;28;20541;-82
2023/10/17 12:24:28;;;;;;;9.23;2.75;;;;;;;13.57;39.83;95166.03;5047913;28;20079;-80
2023/10/17 12:26:55;;;;;;;5.05;2.45;;;;;;;13.48;39.95;95157.72;5046316;28;20040;-80
2023/10/17 12:29:25;;;;;;;10.35;3.08;;;;;;;13.37;39.92;95158.09;5030037;28;20083;-80
2023/10/17 12:31:53;;;;;;;5.65;2.80;;;;;;;13.36;40.04;95153.00;5045746;28;20705;-81
2023/10/17 12:34:20;;;;;;;5.65;3.10;;;;;;;13.35;40.39;95152.22;5028703;28;20117;-80
2023/10/17 12:36:46;;;;;;;5.15;2.80;;;;;;;13.33;40.26;95140.88;5028390;28;20028;-81
2023/10/17 12:39:12;;;;;;;3.65;2.83;;;;;;;13.43;40.31;95150.78;5007602;28;20037;-81
2023/10/17 12:41:37;;;;;;;7.40;4.18;;;;;;;13.51;40.37;95159.56;5026068;28;20139;-82
2023/10/17 12:44:03;;;;;;;3.38;2.25;;;;;;;13.47;40.27;95151.38;5028073;28;20491;-82
2023/10/17 12:46:30;;;;;;;8.65;2.95;;;;;;;13.50;40.57;95149.72;5047299;28;20450;-80
2023/10/17 12:48:56;;;;;;;4.43;2.97;;;;;;;13.32;41.07;95150.38;5008661;28;20075;-80
2023/10/17 12:51:23;;;;;;;4.47;2.42;;;;;;;13.37;41.00;95151.81;5016001;28;20033;-80
2023/10/17 12:53:51;;;;;;;6.22;2.53;;;;;;;13.33;41.34;95160.19;5012237;28;20036;-84
2023/10/17 12:56:20;;;;;;;4.40;2.78;;;;;;;13.36;40.99;95156.56;5029380;28;20020;-80
2023/10/17 12:58:46;;;;;;;4.82;2.20;;;;;;;13.29;40.93;95152.03;5046831;28;20028;-81
2023/10/17 13:01:12;;;;;;;3.63;2.40;;;;;;;13.32;41.00;95152.38;5027122;28;20041;-81
2023/10/17 13:03:38;;;;;;;6.55;2.60;;;;;;;13.26;41.03;95155.72;5029339;28;20032;-79
2023/10/17 13:06:06;;;;;;;4.97;2.63;;;;;;;13.31;41.10;95154.38;5010522;28;20475;-79
2023/10/17 13:08:32;;;;;;;5.93;2.60;;;;;;;13.25;41.17;95150.66;5029110;28;20037;-82
2023/10/17 13:10:58;;;;;;;7.45;2.58;;;;;;;13.23;41.47;95150.31;5027838;28;20032;-81
2023/10/17 13:13:25;;;;;;;6.38;2.63;;;;;;;13.24;41.29;95146.31;5028038;28;20163;-79
2023/10/17 13:15:50;;;;;;;2.63;2.10;;;;;;;13.14;41.47;95136.44;5011676;28;20128;-81
2023/10/17 13:18:16;;;;;;;6.40;2.45;;;;;;;13.19;41.47;95146.88;5010785;28;20115;-82
2023/10/17 13:20:48;;;;;;;3.28;2.22;;;;;;;13.14;41.89;95139.94;5027128;28;20407;-81
2023/10/17 13:23:17;;;;;;;4.18;2.67;;;;;;;13.20;41.80;95151.19;5046021;28;20482;-81
2023/10/17 13:25:43;;;;;;;4.65;2.17;;;;;;;13.23;42.20;95150.31;5066324;28;20035;-80
2023/10/17 13:28:10;;;;;;;3.97;2.40;;;;;;;13.16;42.29;95147.78;5027060;28;20029;-80
2023/10/17 13:30:36;;;;;;;3.00;2.00;;;;;;;13.04;42.38;95149.38;5008213;28;20440;-81
2023/10/17 13:33:01;;;;;;;2.35;1.50;;;;;;;12.80;42.71;95151.78;5042399;28;20021;-81
2023/10/17 13:35:28;;;;;;;5.50;2.55;;;;;;;12.68;43.34;95156.13;5027789;28;20456;-81
2023/10/17 13:37:55;;;;;;;3.08;1.73;;;;;;;12.61;43.69;95145.31;5029132;28;20510;-81
2023/10/17 13:40:23;;;;;;;3.97;2.45;;;;;;;12.57;43.79;95152.16;5027774;28;20036;-82
2023/10/17 13:42:52;;;;;;;3.35;2.25;;;;;;;12.40;44.26;95152.31;5012539;28;20027;-81
2023/10/17 13:45:21;;;;;;;4.78;2.30;;;;;;;12.44;45.25;95143.91;5028175;28;20384;-81
2023/10/17 13:47:49;;;;;;;4.93;2.30;;;;;;;12.40;44.26;95151.53;5028864;28;20112;-80
2023/10/17 13:50:16;;;;;;;3.03;1.83;;;;;;;12.20;44.77;95149.00;5027574;28;20076;-79
2023/10/17 13:52:42;;;;;;;4.10;2.33;;;;;;;12.13;45.08;95144.50;5046074;28;20131;-79
2023/10/17 13:55:14;;;;;;;4.53;2.47;;;;;;;12.14;45.46;95154.28;5046039;28;20148;-80
2023/10/17 13:57:42;;;;;;;3.85;2.40;;;;;;;12.13;45.35;95146.47;5028362;28;20048;-78
2023/10/17 14:00:18;;;;;;;4.32;2.35;;;;;;;12.04;45.66;95146.38;5044741;28;20033;-79